sensor_id;sensor_type;location;lat;lon;timestamp;temperature;humidity
37050;DHT22;22958;51.232;6.826;2023-04-01T00:00:19;10.10;99.90
37050;DHT22;22958;51.232;6.826;2023-04-01T00:02:45;10.10;99.90
37050;DHT22;22958;51.232;6.826;2023-04-01T00:05:11;10.10;99.90
37050;DHT22;22958;51.232;6.826;2023-04-01T00:07:37;10.10;99.90
37050;DHT22;22958;51.232;6.826;2023-04-01T00:10:05;10.10;99.90
37050;DHT22;22958;51.232;6.826;2023-04-01T00:12:30;10.00;99.90
37050;DHT22;22958;51.232;6.826;2023-04-01T00:14:56;10.00;99.90
37050;DHT22;22958;51.232;6.826;2023-04-01T00:17:22;10.00;99.90
37050;DHT22;22958;51.232;6.826;2023-04-01T00:19:48;10.00;99.90
37050;DHT22;22958;51.232;6.826;2023-04-01T00:22:13;10.00;99.90
37050;DHT22;22958;51.232;6.826;2023-04-01T00:24:39;10.00;99.90
37050;DHT22;22958;51.232;6.826;2023-04-01T00:27:05;10.00;99.90
37050;DHT22;22958;51.232;6.826;2023-04-01T00:29:30;9.90;99.90
37050;DHT22;22958;51.232;6.826;2023-04-01T00:31:57;10.00;99.90
37050;DHT22;22958;51.232;6.826;2023-04-01T00:34:23;10.00;99.90
37050;DHT22;22958;51.232;6.826;2023-04-01T00:36:51;10.00;99.90
37050;DHT22;22958;51.232;6.826;2023-04-01T00:39:18;10.10;99.90
37050;DHT22;22958;51.232;6.826;2023-04-01T00:41:44;10.10;99.90
37050;DHT22;22958;51.232;6.826;2023-04-01T00:44:42;10.00;99.90
37050;DHT22;22958;51.232;6.826;2023-04-01T00:47:08;10.10;99.90
37050;DHT22;22958;51.232;6.826;2023-04-01T00:49:39;10.10;99.90
37050;DHT22;22958;51.232;6.826;2023-04-01T00:52:07;10.10;99.90
37050;DHT22;22958;51.232;6.826;2023-04-01T00:54:34;10.10;99.90
37050;DHT22;22958;51.232;6.826;2023-04-01T00:57:05;10.10;99.90
37050;DHT22;22958;51.232;6.826;2023-04-01T00:59:36;10.10;99.90
37050;DHT22;22958;51.232;6.826;2023-04-01T01:02:02;10.10;99.90
37050;DHT22;22958;51.232;6.826;2023-04-01T01:04:30;10.10;99.90
37050;DHT22;22958;51.232;6.826;2023-04-01T01:07:25;10.10;99.90
37050;DHT22;22958;51.232;6.826;2023-04-01T01:10:04;10.20;99.90
37050;DHT22;22958;51.232;6.826;2023-04-01T01:12:57;10.20;99.90
37050;DHT22;22958;51.232;6.826;2023-04-01T01:23:23;10.20;99.90
37050;DHT22;22958;51.232;6.826;2023-04-01T01:36:56;10.10;99.90
37050;DHT22;22958;51.232;6.826;2023-04-01T01:39:26;10.10;99.90
37050;DHT22;22958;51.232;6.826;2023-04-01T01:41:53;10.10;99.90
37050;DHT22;22958;51.232;6.826;2023-04-01T01:44:21;10.00;99.90
37050;DHT22;22958;51.232;6.826;2023-04-01T01:46:47;9.90;99.90
37050;DHT22;22958;51.232;6.826;2023-04-01T01:49:15;9.90;99.90
37050;DHT22;22958;51.232;6.826;2023-04-01T01:51:41;9.80;99.90
37050;DHT22;22958;51.232;6.826;2023-04-01T01:54:12;9.80;99.90
37050;DHT22;22958;51.232;6.826;2023-04-01T01:56:38;9.80;99.90
37050;DHT22;22958;51.232;6.826;2023-04-01T01:59:08;9.80;99.90
37050;DHT22;22958;51.232;6.826;2023-04-01T02:01:38;9.80;99.90
37050;DHT22;22958;51.232;6.826;2023-04-01T02:04:04;9.80;99.90
37050;DHT22;22958;51.232;6.826;2023-04-01T02:06:34;9.80;99.90
37050;DHT22;22958;51.232;6.826;2023-04-01T02:09:02;9.80;99.90
37050;DHT22;22958;51.232;6.826;2023-04-01T02:11:40;9.80;99.90
37050;DHT22;22958;51.232;6.826;2023-04-01T02:14:22;9.80;99.90
37050;DHT22;22958;51.232;6.826;2023-04-01T02:17:02;9.70;99.90
37050;DHT22;22958;51.232;6.826;2023-04-01T02:19:34;9.70;99.90
37050;DHT22;22958;51.232;6.826;2023-04-01T02:22:03;9.70;99.90
37050;DHT22;22958;51.232;6.826;2023-04-01T02:24:31;9.70;99.90
37050;DHT22;22958;51.232;6.826;2023-04-01T02:26:59;9.70;99.90
37050;DHT22;22958;51.232;6.826;2023-04-01T02:29:24;9.60;99.90
37050;DHT22;22958;51.232;6.826;2023-04-01T02:31:52;9.70;99.90
37050;DHT22;22958;51.232;6.826;2023-04-01T02:34:20;9.60;99.90
37050;DHT22;22958;51.232;6.826;2023-04-01T02:36:47;9.60;99.90
37050;DHT22;22958;51.232;6.826;2023-04-01T02:39:14;9.60;99.90
37050;DHT22;22958;51.232;6.826;2023-04-01T02:41:42;9.60;99.90
37050;DHT22;22958;51.232;6.826;2023-04-01T02:44:09;9.60;99.90
37050;DHT22;22958;51.232;6.826;2023-04-01T02:46:35;9.50;99.90
37050;DHT22;22958;51.232;6.826;2023-04-01T02:49:01;9.60;99.90
37050;DHT22;22958;51.232;6.826;2023-04-01T02:51:27;9.50;99.90
37050;DHT22;22958;51.232;6.826;2023-04-01T02:53:52;9.50;99.90
37050;DHT22;22958;51.232;6.826;2023-04-01T02:56:18;9.50;99.90
37050;DHT22;22958;51.232;6.826;2023-04-01T02:58:45;9.50;99.90
37050;DHT22;22958;51.232;6.826;2023-04-01T03:01:11;9.50;99.90
37050;DHT22;22958;51.232;6.826;2023-04-01T03:03:36;9.50;99.90
37050;DHT22;22958;51.232;6.826;2023-04-01T03:06:09;9.50;99.90
37050;DHT22;22958;51.232;6.826;2023-04-01T03:08:35;9.50;99.90
37050;DHT22;22958;51.232;6.826;2023-04-01T03:11:01;9.50;99.90
37050;DHT22;22958;51.232;6.826;2023-04-01T03:13:27;9.60;99.90
37050;DHT22;22958;51.232;6.826;2023-04-01T03:15:53;9.60;99.90
37050;DHT22;22958;51.232;6.826;2023-04-01T03:18:18;9.60;99.90
37050;DHT22;22958;51.232;6.826;2023-04-01T03:20:44;9.70;99.90
37050;DHT22;22958;51.232;6.826;2023-04-01T03:23:10;9.60;99.90
37050;DHT22;22958;51.232;6.826;2023-04-01T03:25:36;9.60;99.90
37050;DHT22;22958;51.232;6.826;2023-04-01T03:28:01;9.60;99.90
37050;DHT22;22958;51.232;6.826;2023-04-01T03:30:27;9.60;99.90
37050;DHT22;22958;51.232;6.826;2023-04-01T03:32:55;9.60;99.90
37050;DHT22;22958;51.232;6.826;2023-04-01T03:35:20;9.60;99.90
37050;DHT22;22958;51.232;6.826;2023-04-01T03:37:46;9.60;99.90
37050;DHT22;22958;51.232;6.826;2023-04-01T03:40:11;9.70;99.90
37050;DHT22;22958;51.232;6.826;2023-04-01T03:42:37;9.70;99.90
37050;DHT22;22958;51.232;6.826;2023-04-01T03:45:04;9.70;99.90
37050;DHT22;22958;51.232;6.826;2023-04-01T03:47:29;9.70;99.90
37050;DHT22;22958;51.232;6.826;2023-04-01T03:49:55;9.80;99.90
37050;DHT22;22958;51.232;6.826;2023-04-01T03:52:21;9.70;99.90
37050;DHT22;22958;51.232;6.826;2023-04-01T03:54:46;9.80;99.90
37050;DHT22;22958;51.232;6.826;2023-04-01T03:57:12;9.70;99.90
37050;DHT22;22958;51.232;6.826;2023-04-01T03:59:37;9.70;99.90
37050;DHT22;22958;51.232;6.826;2023-04-01T04:02:03;9.70;99.90
37050;DHT22;22958;51.232;6.826;2023-04-01T04:04:29;9.70;99.90
37050;DHT22;22958;51.232;6.826;2023-04-01T04:06:55;9.70;99.90
37050;DHT22;22958;51.232;6.826;2023-04-01T04:09:21;9.70;99.90
37050;DHT22;22958;51.232;6.826;2023-04-01T04:11:47;9.80;99.90
37050;DHT22;22958;51.232;6.826;2023-04-01T04:14:13;9.70;99.90
37050;DHT22;22958;51.232;6.826;2023-04-01T04:16:38;9.70;99.90
37050;DHT22;22958;51.232;6.826;2023-04-01T04:19:04;9.70;99.90
37050;DHT22;22958;51.232;6.826;2023-04-01T04:21:30;9.60;99.90
37050;DHT22;22958;51.232;6.826;2023-04-01T04:23:55;9.70;99.90
37050;DHT22;22958;51.232;6.826;2023-04-01T04:26:21;9.70;99.90
37050;DHT22;22958;51.232;6.826;2023-04-01T04:28:47;9.70;99.90
37050;DHT22;22958;51.232;6.826;2023-04-01T04:31:18;9.60;99.90
37050;DHT22;22958;51.232;6.826;2023-04-01T04:33:45;9.60;99.90
37050;DHT22;22958;51.232;6.826;2023-04-01T04:36:10;9.60;99.90
37050;DHT22;22958;51.232;6.826;2023-04-01T04:38:36;9.60;99.90
37050;DHT22;22958;51.232;6.826;2023-04-01T04:41:01;9.60;99.90
37050;DHT22;22958;51.232;6.826;2023-04-01T04:43:27;9.60;99.90
37050;DHT22;22958;51.232;6.826;2023-04-01T04:45:52;9.60;99.90
37050;DHT22;22958;51.232;6.826;2023-04-01T04:48:18;9.60;99.90
37050;DHT22;22958;51.232;6.826;2023-04-01T04:50:48;9.60;99.90
37050;DHT22;22958;51.232;6.826;2023-04-01T04:53:15;9.60;99.90
37050;DHT22;22958;51.232;6.826;2023-04-01T04:55:49;9.60;99.90
37050;DHT22;22958;51.232;6.826;2023-04-01T04:58:15;9.60;99.90
37050;DHT22;22958;51.232;6.826;2023-04-01T05:00:41;9.60;99.90
37050;DHT22;22958;51.232;6.826;2023-04-01T05:03:07;9.60;99.90
37050;DHT22;22958;51.232;6.826;2023-04-01T05:05:32;9.60;99.90
37050;DHT22;22958;51.232;6.826;2023-04-01T05:07:58;9.60;99.90
37050;DHT22;22958;51.232;6.826;2023-04-01T05:10:23;9.60;99.90
37050;DHT22;22958;51.232;6.826;2023-04-01T05:12:49;9.60;99.90
37050;DHT22;22958;51.232;6.826;2023-04-01T05:15:14;9.60;99.90
37050;DHT22;22958;51.232;6.826;2023-04-01T05:17:40;9.60;99.90
37050;DHT22;22958;51.232;6.826;2023-04-01T05:20:06;9.60;99.90
37050;DHT22;22958;51.232;6.826;2023-04-01T05:22:32;9.60;99.90
37050;DHT22;22958;51.232;6.826;2023-04-01T05:24:57;9.60;99.90
37050;DHT22;22958;51.232;6.826;2023-04-01T05:27:23;9.60;99.90
37050;DHT22;22958;51.232;6.826;2023-04-01T05:29:48;9.60;99.90
37050;DHT22;22958;51.232;6.826;2023-04-01T05:32:14;9.60;99.90
37050;DHT22;22958;51.232;6.826;2023-04-01T05:34:40;9.50;99.90
37050;DHT22;22958;51.232;6.826;2023-04-01T05:37:05;9.50;99.90
37050;DHT22;22958;51.232;6.826;2023-04-01T05:39:35;9.50;99.90
37050;DHT22;22958;51.232;6.826;2023-04-01T05:42:01;9.50;99.90
37050;DHT22;22958;51.232;6.826;2023-04-01T05:44:26;9.50;99.90
37050;DHT22;22958;51.232;6.826;2023-04-01T05:46:52;9.50;99.90
37050;DHT22;22958;51.232;6.826;2023-04-01T05:49:17;9.50;99.90
37050;DHT22;22958;51.232;6.826;2023-04-01T05:51:43;9.50;99.90
37050;DHT22;22958;51.232;6.826;2023-04-01T05:54:08;9.50;99.90
37050;DHT22;22958;51.232;6.826;2023-04-01T05:56:34;9.50;99.90
37050;DHT22;22958;51.232;6.826;2023-04-01T05:58:59;9.50;99.90
37050;DHT22;22958;51.232;6.826;2023-04-01T06:01:25;9.50;99.90
37050;DHT22;22958;51.232;6.826;2023-04-01T06:03:51;9.50;99.90
37050;DHT22;22958;51.232;6.826;2023-04-01T06:06:26;9.50;99.90
37050;DHT22;22958;51.232;6.826;2023-04-01T06:08:53;9.50;99.90
37050;DHT22;22958;51.232;6.826;2023-04-01T06:11:51;9.50;99.90
37050;DHT22;22958;51.232;6.826;2023-04-01T06:14:38;9.50;99.90
37050;DHT22;22958;51.232;6.826;2023-04-01T06:17:25;9.50;99.90
37050;DHT22;22958;51.232;6.826;2023-04-01T06:25:50;9.50;99.90
37050;DHT22;22958;51.232;6.826;2023-04-01T06:31:24;9.60;99.90
37050;DHT22;22958;51.232;6.826;2023-04-01T06:36:39;9.60;99.90
37050;DHT22;22958;51.232;6.826;2023-04-01T06:39:38;9.60;99.90
37050;DHT22;22958;51.232;6.826;2023-04-01T06:42:16;9.60;99.90
37050;DHT22;22958;51.232;6.826;2023-04-01T06:45:12;9.50;99.90
37050;DHT22;22958;51.232;6.826;2023-04-01T06:48:10;9.50;99.90
37050;DHT22;22958;51.232;6.826;2023-04-01T06:51:24;9.50;99.90
37050;DHT22;22958;51.232;6.826;2023-04-01T06:54:15;9.50;99.90
37050;DHT22;22958;51.232;6.826;2023-04-01T06:56:44;9.50;99.90
37050;DHT22;22958;51.232;6.826;2023-04-01T06:59:17;9.50;99.90
37050;DHT22;22958;51.232;6.826;2023-04-01T07:01:49;9.50;99.90
37050;DHT22;22958;51.232;6.826;2023-04-01T07:04:20;9.50;99.90
37050;DHT22;22958;51.232;6.826;2023-04-01T07:06:54;9.50;99.90
37050;DHT22;22958;51.232;6.826;2023-04-01T07:09:25;9.50;99.90
37050;DHT22;22958;51.232;6.826;2023-04-01T07:11:53;9.50;99.90
37050;DHT22;22958;51.232;6.826;2023-04-01T07:14:29;9.60;99.90
37050;DHT22;22958;51.232;6.826;2023-04-01T07:17:06;9.60;99.90
37050;DHT22;22958;51.232;6.826;2023-04-01T07:19:42;9.60;99.90
37050;DHT22;22958;51.232;6.826;2023-04-01T07:22:29;9.60;99.90
37050;DHT22;22958;51.232;6.826;2023-04-01T07:24:55;9.70;99.90
37050;DHT22;22958;51.232;6.826;2023-04-01T07:27:23;9.60;99.90
37050;DHT22;22958;51.232;6.826;2023-04-01T07:29:48;9.60;99.90
37050;DHT22;22958;51.232;6.826;2023-04-01T07:35:26;9.70;99.90
37050;DHT22;22958;51.232;6.826;2023-04-01T07:38:17;9.70;99.90
37050;DHT22;22958;51.232;6.826;2023-04-01T07:43:56;9.80;99.90
37050;DHT22;22958;51.232;6.826;2023-04-01T07:49:12;9.70;99.90
37050;DHT22;22958;51.232;6.826;2023-04-01T07:54:49;9.70;99.90
37050;DHT22;22958;51.232;6.826;2023-04-01T07:57:20;9.70;99.90
37050;DHT22;22958;51.232;6.826;2023-04-01T08:00:08;9.70;99.90
37050;DHT22;22958;51.232;6.826;2023-04-01T08:03:04;9.70;99.90
37050;DHT22;22958;51.232;6.826;2023-04-01T08:05:55;9.70;99.90
37050;DHT22;22958;51.232;6.826;2023-04-01T08:08:43;9.70;99.90
37050;DHT22;22958;51.232;6.826;2023-04-01T08:11:35;9.70;99.90
37050;DHT22;22958;51.232;6.826;2023-04-01T08:17:05;9.70;99.90
37050;DHT22;22958;51.232;6.826;2023-04-01T08:19:56;9.70;99.90
37050;DHT22;22958;51.232;6.826;2023-04-01T08:22:45;9.70;99.90
37050;DHT22;22958;51.232;6.826;2023-04-01T08:25:20;9.80;99.90
37050;DHT22;22958;51.232;6.826;2023-04-01T08:28:32;9.80;99.90
37050;DHT22;22958;51.232;6.826;2023-04-01T08:30:48;9.80;99.90
37050;DHT22;22958;51.232;6.826;2023-04-01T08:33:28;9.90;99.90
37050;DHT22;22958;51.232;6.826;2023-04-01T08:36:28;9.80;99.90
37050;DHT22;22958;51.232;6.826;2023-04-01T08:39:08;9.80;99.90
37050;DHT22;22958;51.232;6.826;2023-04-01T08:47:49;9.80;99.90
37050;DHT22;22958;51.232;6.826;2023-04-01T08:56:20;9.80;99.90
37050;DHT22;22958;51.232;6.826;2023-04-01T08:58:59;9.80;99.90
37050;DHT22;22958;51.232;6.826;2023-04-01T09:01:43;9.90;99.90
37050;DHT22;22958;51.232;6.826;2023-04-01T09:15:41;9.90;99.90
37050;DHT22;22958;51.232;6.826;2023-04-01T09:21:24;10.00;99.90
37050;DHT22;22958;51.232;6.826;2023-04-01T09:38:23;10.20;99.90
37050;DHT22;22958;51.232;6.826;2023-04-01T09:44:11;10.20;99.90
37050;DHT22;22958;51.232;6.826;2023-04-01T09:46:26;10.20;99.90
37050;DHT22;22958;51.232;6.826;2023-04-01T09:49:17;10.10;99.90
37050;DHT22;22958;51.232;6.826;2023-04-01T09:54:53;10.00;99.90
37050;DHT22;22958;51.232;6.826;2023-04-01T09:58:12;10.00;99.90
37050;DHT22;22958;51.232;6.826;2023-04-01T10:13:03;10.10;99.90
37050;DHT22;22958;51.232;6.826;2023-04-01T10:27:41;10.10;99.90
37050;DHT22;22958;51.232;6.826;2023-04-01T10:30:55;10.10;99.90
37050;DHT22;22958;51.232;6.826;2023-04-01T10:41:51;10.00;99.90
37050;DHT22;22958;51.232;6.826;2023-04-01T10:53:40;10.00;99.90
37050;DHT22;22958;51.232;6.826;2023-04-01T11:02:11;10.10;99.90
37050;DHT22;22958;51.232;6.826;2023-04-01T11:22:41;10.10;99.90
37050;DHT22;22958;51.232;6.826;2023-04-01T11:28:41;10.20;99.90
37050;DHT22;22958;51.232;6.826;2023-04-01T11:31:33;10.20;99.90
37050;DHT22;22958;51.232;6.826;2023-04-01T11:37:21;10.20;99.90
37050;DHT22;22958;51.232;6.826;2023-04-01T11:40:06;10.20;99.90
37050;DHT22;22958;51.232;6.826;2023-04-01T11:42:40;10.20;99.90
37050;DHT22;22958;51.232;6.826;2023-04-01T11:45:36;10.30;99.90
37050;DHT22;22958;51.232;6.826;2023-04-01T11:48:27;10.30;99.90
37050;DHT22;22958;51.232;6.826;2023-04-01T11:51:17;10.40;99.90
37050;DHT22;22958;51.232;6.826;2023-04-01T11:54:10;10.30;99.90
37050;DHT22;22958;51.232;6.826;2023-04-01T12:11:45;10.50;99.90
37050;DHT22;22958;51.232;6.826;2023-04-01T12:14:20;10.50;99.90
37050;DHT22;22958;51.232;6.826;2023-04-01T12:19:51;10.60;99.90
37050;DHT22;22958;51.232;6.826;2023-04-01T12:25:05;10.50;99.90
37050;DHT22;22958;51.232;6.826;2023-04-01T12:27:59;10.60;99.90
37050;DHT22;22958;51.232;6.826;2023-04-01T12:30:35;10.60;99.90
37050;DHT22;22958;51.232;6.826;2023-04-01T12:33:18;10.70;99.90
37050;DHT22;22958;51.232;6.826;2023-04-01T12:42:04;10.80;99.90
37050;DHT22;22958;51.232;6.826;2023-04-01T12:45:00;10.80;99.90
37050;DHT22;22958;51.232;6.826;2023-04-01T12:48:15;10.90;99.90
37050;DHT22;22958;51.232;6.826;2023-04-01T12:54:00;11.00;99.90
37050;DHT22;22958;51.232;6.826;2023-04-01T13:01:52;11.10;99.90
37050;DHT22;22958;51.232;6.826;2023-04-01T13:04:56;11.20;99.90
37050;DHT22;22958;51.232;6.826;2023-04-01T13:16:39;10.90;99.90
37050;DHT22;22958;51.232;6.826;2023-04-01T13:19:38;10.80;99.90
37050;DHT22;22958;51.232;6.826;2023-04-01T13:22:20;10.80;99.90
37050;DHT22;22958;51.232;6.826;2023-04-01T13:27:51;10.70;99.90
37050;DHT22;22958;51.232;6.826;2023-04-01T13:30:39;10.70;99.90
37050;DHT22;22958;51.232;6.826;2023-04-01T13:38:41;10.70;99.90
37050;DHT22;22958;51.232;6.826;2023-04-01T13:41:44;10.70;99.90
37050;DHT22;22958;51.232;6.826;2023-04-01T13:44:48;10.80;99.90
37050;DHT22;22958;51.232;6.826;2023-04-01T13:56:29;10.70;99.90
37050;DHT22;22958;51.232;6.826;2023-04-01T13:59:31;10.70;99.90
37050;DHT22;22958;51.232;6.826;2023-04-01T14:02:21;10.70;99.90
37050;DHT22;22958;51.232;6.826;2023-04-01T14:05:12;10.70;99.90
37050;DHT22;22958;51.232;6.826;2023-04-01T14:10:34;10.70;99.90
37050;DHT22;22958;51.232;6.826;2023-04-01T14:16:04;10.90;99.90
37050;DHT22;22958;51.232;6.826;2023-04-01T14:18:58;10.90;99.90
37050;DHT22;22958;51.232;6.826;2023-04-01T14:24:45;11.20;99.90
37050;DHT22;22958;51.232;6.826;2023-04-01T14:27:24;11.10;99.90
37050;DHT22;22958;51.232;6.826;2023-04-01T14:30:09;11.10;99.90
37050;DHT22;22958;51.232;6.826;2023-04-01T14:33:05;11.20;99.90
37050;DHT22;22958;51.232;6.826;2023-04-01T14:35:41;11.20;99.90
37050;DHT22;22958;51.232;6.826;2023-04-01T14:38:24;11.20;99.90
37050;DHT22;22958;51.232;6.826;2023-04-01T14:41:31;11.20;99.90
37050;DHT22;22958;51.232;6.826;2023-04-01T14:49:35;11.30;99.90
37050;DHT22;22958;51.232;6.826;2023-04-01T14:52:10;11.30;99.90
37050;DHT22;22958;51.232;6.826;2023-04-01T14:54:38;11.40;99.90
37050;DHT22;22958;51.232;6.826;2023-04-01T14:59:40;11.20;99.90
37050;DHT22;22958;51.232;6.826;2023-04-01T15:02:56;11.20;99.90
37050;DHT22;22958;51.232;6.826;2023-04-01T15:08:31;11.00;99.90
37050;DHT22;22958;51.232;6.826;2023-04-01T15:21:48;10.70;99.90
37050;DHT22;22958;51.232;6.826;2023-04-01T15:38:36;10.70;99.90
37050;DHT22;22958;51.232;6.826;2023-04-01T15:41:35;10.60;99.90
37050;DHT22;22958;51.232;6.826;2023-04-01T15:44:02;10.60;99.90
37050;DHT22;22958;51.232;6.826;2023-04-01T15:46:39;10.60;99.90
37050;DHT22;22958;51.232;6.826;2023-04-01T15:49:28;10.50;99.90
37050;DHT22;22958;51.232;6.826;2023-04-01T15:52:10;10.50;99.90
37050;DHT22;22958;51.232;6.826;2023-04-01T16:00:29;10.40;99.90
37050;DHT22;22958;51.232;6.826;2023-04-01T16:06:12;10.40;99.90
37050;DHT22;22958;51.232;6.826;2023-04-01T16:09:06;10.40;99.90
37050;DHT22;22958;51.232;6.826;2023-04-01T16:14:40;10.30;99.90
37050;DHT22;22958;51.232;6.826;2023-04-01T16:22:49;10.30;99.90
37050;DHT22;22958;51.232;6.826;2023-04-01T16:36:22;10.30;99.90
37050;DHT22;22958;51.232;6.826;2023-04-01T16:39:10;10.30;99.90
37050;DHT22;22958;51.232;6.826;2023-04-01T16:44:25;10.30;99.90
37050;DHT22;22958;51.232;6.826;2023-04-01T16:46:56;10.30;99.90
37050;DHT22;22958;51.232;6.826;2023-04-01T16:49:39;10.30;99.90
37050;DHT22;22958;51.232;6.826;2023-04-01T17:04:43;10.20;99.90
37050;DHT22;22958;51.232;6.826;2023-04-01T17:15:28;10.20;99.90
37050;DHT22;22958;51.232;6.826;2023-04-01T17:17:58;10.10;99.90
37050;DHT22;22958;51.232;6.826;2023-04-01T17:23:28;10.10;99.90
37050;DHT22;22958;51.232;6.826;2023-04-01T17:31:30;10.10;99.90
37050;DHT22;22958;51.232;6.826;2023-04-01T17:34:25;10.10;99.90
37050;DHT22;22958;51.232;6.826;2023-04-01T17:37:20;10.10;99.90
37050;DHT22;22958;51.232;6.826;2023-04-01T17:42:39;10.10;99.90
37050;DHT22;22958;51.232;6.826;2023-04-01T17:50:51;10.10;99.90
37050;DHT22;22958;51.232;6.826;2023-04-01T17:56:19;10.10;99.90
37050;DHT22;22958;51.232;6.826;2023-04-01T18:02:09;10.00;99.90
37050;DHT22;22958;51.232;6.826;2023-04-01T18:10:15;10.00;99.90
37050;DHT22;22958;51.232;6.826;2023-04-01T18:13:08;10.00;99.90
37050;DHT22;22958;51.232;6.826;2023-04-01T18:23:27;9.90;99.90
37050;DHT22;22958;51.232;6.826;2023-04-01T18:26:04;9.90;99.90
37050;DHT22;22958;51.232;6.826;2023-04-01T18:36:24;9.90;99.90
37050;DHT22;22958;51.232;6.826;2023-04-01T18:39:00;9.90;99.90
37050;DHT22;22958;51.232;6.826;2023-04-01T18:41:54;9.90;99.90
37050;DHT22;22958;51.232;6.826;2023-04-01T18:44:46;9.90;99.90
37050;DHT22;22958;51.232;6.826;2023-04-01T18:47:23;9.90;99.90
37050;DHT22;22958;51.232;6.826;2023-04-01T18:49:52;9.80;99.90
37050;DHT22;22958;51.232;6.826;2023-04-01T18:52:45;9.90;99.90
37050;DHT22;22958;51.232;6.826;2023-04-01T18:57:53;9.80;99.90
37050;DHT22;22958;51.232;6.826;2023-04-01T19:00:21;9.80;99.90
37050;DHT22;22958;51.232;6.826;2023-04-01T19:05:43;9.80;99.90
37050;DHT22;22958;51.232;6.826;2023-04-01T19:13:43;9.70;99.90
37050;DHT22;22958;51.232;6.826;2023-04-01T19:21:42;9.70;99.90
37050;DHT22;22958;51.232;6.826;2023-04-01T19:29:54;9.80;99.90
37050;DHT22;22958;51.232;6.826;2023-04-01T19:35:19;9.80;99.90
37050;DHT22;22958;51.232;6.826;2023-04-01T19:40:48;9.80;99.90
37050;DHT22;22958;51.232;6.826;2023-04-01T19:43:39;9.80;99.90
37050;DHT22;22958;51.232;6.826;2023-04-01T19:49:12;9.70;99.90
37050;DHT22;22958;51.232;6.826;2023-04-01T19:55:02;9.70;99.90
37050;DHT22;22958;51.232;6.826;2023-04-01T20:00:22;9.70;99.90
37050;DHT22;22958;51.232;6.826;2023-04-01T20:03:15;9.70;99.90
37050;DHT22;22958;51.232;6.826;2023-04-01T20:08:34;9.60;99.90
37050;DHT22;22958;51.232;6.826;2023-04-01T20:11:04;9.60;99.90
37050;DHT22;22958;51.232;6.826;2023-04-01T20:16:16;9.60;99.90
37050;DHT22;22958;51.232;6.826;2023-04-01T20:18:57;9.60;99.90
37050;DHT22;22958;51.232;6.826;2023-04-01T20:24:20;9.60;99.90
37050;DHT22;22958;51.232;6.826;2023-04-01T20:26:53;9.50;99.90
37050;DHT22;22958;51.232;6.826;2023-04-01T20:32:30;9.60;99.90
37050;DHT22;22958;51.232;6.826;2023-04-01T20:35:25;9.60;99.90
37050;DHT22;22958;51.232;6.826;2023-04-01T20:44:32;9.60;99.90
37050;DHT22;22958;51.232;6.826;2023-04-01T20:50:21;9.60;99.90
37050;DHT22;22958;51.232;6.826;2023-04-01T21:25:53;9.70;99.90
37050;DHT22;22958;51.232;6.826;2023-04-01T21:28:38;9.70;99.90
37050;DHT22;22958;51.232;6.826;2023-04-01T21:42:48;9.50;99.90
37050;DHT22;22958;51.232;6.826;2023-04-01T21:45:28;9.50;99.90
37050;DHT22;22958;51.232;6.826;2023-04-01T21:53:41;9.30;99.90
37050;DHT22;22958;51.232;6.826;2023-04-01T21:59:16;9.20;99.90
37050;DHT22;22958;51.232;6.826;2023-04-01T22:04:46;9.10;99.90
37050;DHT22;22958;51.232;6.826;2023-04-01T22:09:59;9.00;99.90
37050;DHT22;22958;51.232;6.826;2023-04-01T22:12:48;9.00;99.90
37050;DHT22;22958;51.232;6.826;2023-04-01T22:18:21;9.00;99.90
37050;DHT22;22958;51.232;6.826;2023-04-01T22:21:33;8.90;99.90
37050;DHT22;22958;51.232;6.826;2023-04-01T22:24:09;8.90;99.90
37050;DHT22;22958;51.232;6.826;2023-04-01T22:29:13;8.80;99.90
37050;DHT22;22958;51.232;6.826;2023-04-01T22:31:59;8.80;99.90
37050;DHT22;22958;51.232;6.826;2023-04-01T22:45:20;8.70;99.90
37050;DHT22;22958;51.232;6.826;2023-04-01T22:48:01;8.70;99.90
37050;DHT22;22958;51.232;6.826;2023-04-01T22:56:39;8.60;99.90
37050;DHT22;22958;51.232;6.826;2023-04-01T23:01:58;8.50;99.90
37050;DHT22;22958;51.232;6.826;2023-04-01T23:04:31;8.50;99.90
37050;DHT22;22958;51.232;6.826;2023-04-01T23:07:03;8.50;99.90
37050;DHT22;22958;51.232;6.826;2023-04-01T23:09:34;8.50;99.90
37050;DHT22;22958;51.232;6.826;2023-04-01T23:12:13;8.40;99.90
37050;DHT22;22958;51.232;6.826;2023-04-01T23:14:51;8.50;99.90
37050;DHT22;22958;51.232;6.826;2023-04-01T23:25:05;8.40;99.90
37050;DHT22;22958;51.232;6.826;2023-04-01T23:27:44;8.30;99.90
37050;DHT22;22958;51.232;6.826;2023-04-01T23:33:27;8.30;99.90
37050;DHT22;22958;51.232;6.826;2023-04-01T23:35:55;8.20;99.90
37050;DHT22;22958;51.232;6.826;2023-04-01T23:38:22;8.20;99.90
37050;DHT22;22958;51.232;6.826;2023-04-01T23:40:51;8.20;99.90
37050;DHT22;22958;51.232;6.826;2023-04-01T23:43:26;8.10;99.90
37050;DHT22;22958;51.232;6.826;2023-04-01T23:45:56;8.10;99.90
37050;DHT22;22958;51.232;6.826;2023-04-01T23:48:31;8.10;99.90
37050;DHT22;22958;51.232;6.826;2023-04-01T23:50:58;8.10;99.90
37050;DHT22;22958;51.232;6.826;2023-04-01T23:53:25;8.10;99.90
37050;DHT22;22958;51.232;6.826;2023-04-01T23:55:52;8.10;99.90
37050;DHT22;22958;51.232;6.826;2023-04-01T23:58:24;8.00;99.90
